createdAt,value
2023-02-26T00:04:53.438Z,5.97
2023-02-26T00:09:54.686Z,5.03
2023-02-26T00:12:26.235Z,5.28
2023-02-26T00:14:57.793Z,5.35
2023-02-26T00:20:18.953Z,5.25
2023-02-26T00:22:50.327Z,6.72
2023-02-26T00:27:52.343Z,3.70
2023-02-26T00:30:24.883Z,5.45
2023-02-26T00:32:56.458Z,3.72
2023-02-26T00:38:11.752Z,8.02
2023-02-26T00:40:48.986Z,6.22
2023-02-26T00:43:28.791Z,9.05
2023-02-26T00:46:23.811Z,7.57
2023-02-26T00:49:08.009Z,5.28
2023-02-26T00:52:21.942Z,3.92
2023-02-26T00:54:53.235Z,6.78
2023-02-26T00:57:24.331Z,5.30
2023-02-26T00:59:55.453Z,6.18
2023-02-26T01:02:28.269Z,6.78
2023-02-26T01:04:59.679Z,5.38
2023-02-26T01:10:01.799Z,3.47
2023-02-26T01:12:33.738Z,5.25
2023-02-26T01:17:58.117Z,6.40
2023-02-26T01:20:39.284Z,3.05
2023-02-26T01:25:45.726Z,5.78
2023-02-26T01:28:17.385Z,4.70
2023-02-26T01:30:49.822Z,4.40
2023-02-26T01:33:32.421Z,9.50
2023-02-26T01:36:25.234Z,5.35
2023-02-26T01:39:22.366Z,4.10
2023-02-26T01:42:00.777Z,5.05
2023-02-26T01:44:44.623Z,4.63
2023-02-26T01:47:43.090Z,4.10
2023-02-26T01:50:19.529Z,4.88
2023-02-26T01:52:50.559Z,3.08
2023-02-26T01:55:29.388Z,4.38
2023-02-26T01:58:02.913Z,4.88
2023-02-26T02:00:34.285Z,3.75
2023-02-26T02:03:06.310Z,2.65
2023-02-26T02:06:08.994Z,4.40
2023-02-26T02:08:41.441Z,2.20
2023-02-26T02:11:13.998Z,3.17
2023-02-26T02:14:00.142Z,3.30
2023-02-26T02:16:49.056Z,4.45
2023-02-26T02:19:35.658Z,3.22
2023-02-26T02:22:46.863Z,2.00
2023-02-26T02:25:42.241Z,2.92
2023-02-26T02:28:31.594Z,3.78
2023-02-26T02:31:15.611Z,3.30
2023-02-26T02:34:05.650Z,3.35
2023-02-26T02:36:45.637Z,2.92
2023-02-26T02:39:34.071Z,2.80
2023-02-26T02:42:33.152Z,3.97
2023-02-26T02:45:12.299Z,2.95
2023-02-26T02:47:46.615Z,3.47
2023-02-26T02:50:28.602Z,2.35
2023-02-26T02:53:23.390Z,2.60
2023-02-26T02:56:04.617Z,3.65
2023-02-26T02:58:53.001Z,2.58
2023-02-26T03:01:26.778Z,2.58
2023-02-26T03:04:07.340Z,3.83
2023-02-26T03:06:40.808Z,3.58
2023-02-26T03:09:12.562Z,2.83
2023-02-26T03:11:44.856Z,3.72
2023-02-26T03:14:16.970Z,4.20
2023-02-26T03:17:12.197Z,3.03
2023-02-26T03:20:02.136Z,3.00
2023-02-26T03:23:06.355Z,3.05
2023-02-26T03:25:45.178Z,3.85
2023-02-26T03:28:53.373Z,4.25
2023-02-26T03:32:05.320Z,2.13
2023-02-26T03:34:50.153Z,2.55
2023-02-26T03:37:23.207Z,1.67
2023-02-26T03:39:57.970Z,2.55
2023-02-26T03:42:37.497Z,3.08
2023-02-26T03:45:20.395Z,2.83
2023-02-26T03:47:55.245Z,3.65
2023-02-26T03:50:32.948Z,3.10
2023-02-26T03:53:41.346Z,3.03
2023-02-26T03:56:27.557Z,2.47
2023-02-26T03:59:15.241Z,2.22
2023-02-26T04:02:24.507Z,2.85
2023-02-26T04:05:20.319Z,2.90
2023-02-26T04:07:52.897Z,1.90
2023-02-26T04:10:29.869Z,3.58
2023-02-26T04:13:04.994Z,2.42
2023-02-26T04:15:36.127Z,2.97
2023-02-26T04:18:08.055Z,2.53
2023-02-26T04:20:39.664Z,2.88
2023-02-26T04:23:11.408Z,3.22
2023-02-26T04:25:43.107Z,3.15
2023-02-26T04:28:15.226Z,3.55
2023-02-26T04:30:46.669Z,3.90
2023-02-26T04:33:18.760Z,2.55
2023-02-26T04:35:52.021Z,3.35
2023-02-26T04:38:23.460Z,3.22
2023-02-26T04:40:54.621Z,2.97
2023-02-26T04:43:25.969Z,2.03
2023-02-26T04:46:12.355Z,2.22
2023-02-26T04:48:43.796Z,2.88
2023-02-26T04:51:14.908Z,2.58
2023-02-26T04:53:47.067Z,4.47
2023-02-26T04:56:18.616Z,6.20
2023-02-26T04:58:50.300Z,3.90
2023-02-26T05:01:26.958Z,4.13
2023-02-26T05:03:58.007Z,4.68
2023-02-26T05:06:29.101Z,2.13
2023-02-26T05:09:00.157Z,4.05
2023-02-26T05:11:31.392Z,4.75
2023-02-26T05:14:03.054Z,3.22
2023-02-26T05:16:34.798Z,3.38
2023-02-26T05:19:07.488Z,3.53
2023-02-26T05:21:39.563Z,3.03
2023-02-26T05:24:10.828Z,5.55
2023-02-26T05:26:41.703Z,3.67
2023-02-26T05:29:14.094Z,3.78
2023-02-26T05:31:45.426Z,5.72
2023-02-26T05:34:17.009Z,5.60
2023-02-26T05:36:48.211Z,4.30
2023-02-26T05:41:49.973Z,3.00
2023-02-26T05:44:20.986Z,3.35
2023-02-26T05:46:52.278Z,4.45
2023-02-26T05:49:23.408Z,4.15
2023-02-26T05:51:54.304Z,4.15
2023-02-26T05:54:25.784Z,5.13
2023-02-26T05:59:27.237Z,2.42
2023-02-26T06:01:58.211Z,4.85
2023-02-26T06:04:29.335Z,4.45
2023-02-26T06:07:00.464Z,3.70
2023-02-26T06:09:31.504Z,4.57
2023-02-26T06:12:02.461Z,5.75
2023-02-26T06:14:37.205Z,4.40
2023-02-26T06:17:08.582Z,5.50
2023-02-26T06:19:39.814Z,5.55
2023-02-26T06:22:14.495Z,4.05
2023-02-26T06:24:46.773Z,2.72
2023-02-26T06:27:18.330Z,4.80
2023-02-26T06:29:49.517Z,6.70
2023-02-26T06:32:20.907Z,4.70
2023-02-26T06:34:53.572Z,4.93
2023-02-26T06:37:25.061Z,3.88
2023-02-26T06:39:56.181Z,4.97
2023-02-26T06:42:27.272Z,5.03
2023-02-26T06:44:58.704Z,4.85
2023-02-26T06:47:29.633Z,3.80
2023-02-26T06:50:00.647Z,5.53
2023-02-26T06:52:33.211Z,3.85
2023-02-26T06:55:04.837Z,3.92
2023-02-26T06:57:36.202Z,4.15
2023-02-26T07:00:09.378Z,6.22
2023-02-26T07:02:40.540Z,5.97
2023-02-26T07:05:13.214Z,4.32
2023-02-26T07:07:44.322Z,9.13
2023-02-26T07:10:15.537Z,6.25
2023-02-26T07:12:52.944Z,6.85
2023-02-26T07:15:25.054Z,6.13
2023-02-26T07:17:56.351Z,6.65
2023-02-26T07:22:59.024Z,8.60
2023-02-26T07:25:33.412Z,4.88
2023-02-26T07:28:04.227Z,7.00
2023-02-26T07:30:35.848Z,8.75
2023-02-26T07:33:06.696Z,7.28
2023-02-26T07:35:41.699Z,8.52
2023-02-26T07:38:19.759Z,5.97
2023-02-26T07:40:51.434Z,5.00
2023-02-26T07:43:22.927Z,5.10
2023-02-26T07:45:55.283Z,3.55
2023-02-26T07:48:26.513Z,5.38
2023-02-26T07:50:58.686Z,7.10
2023-02-26T07:53:30.216Z,6.57
2023-02-26T07:56:01.385Z,7.22
2023-02-26T07:58:32.475Z,5.18
2023-02-26T08:01:03.924Z,9.38
2023-02-26T08:03:35.493Z,5.43
2023-02-26T08:08:38.106Z,4.78
2023-02-26T08:11:09.345Z,6.18
2023-02-26T08:13:40.565Z,8.80
2023-02-26T08:16:12.343Z,7.10
2023-02-26T08:18:43.731Z,6.03
2023-02-26T08:21:15.245Z,7.78
2023-02-26T08:23:46.761Z,6.90
2023-02-26T08:26:18.559Z,8.68
2023-02-26T08:28:50.212Z,4.93
2023-02-26T08:31:21.968Z,6.82
2023-02-26T08:33:53.145Z,7.88
2023-02-26T08:36:24.498Z,11.52
2023-02-26T08:38:56.247Z,13.55
2023-02-26T08:41:31.315Z,15.13
2023-02-26T08:44:02.797Z,10.35
2023-02-26T08:46:34.198Z,11.23
2023-02-26T08:49:05.647Z,8.93
2023-02-26T08:51:37.406Z,9.68
2023-02-26T08:56:39.177Z,6.00
2023-02-26T08:59:13.196Z,4.43
2023-02-26T09:01:44.642Z,7.53
2023-02-26T09:04:15.920Z,6.72
2023-02-26T09:06:47.485Z,8.90
2023-02-26T09:09:19.307Z,6.45
2023-02-26T09:11:50.664Z,5.95
2023-02-26T09:16:53.134Z,5.20
2023-02-26T09:19:24.241Z,8.82
2023-02-26T09:21:55.429Z,8.43
2023-02-26T09:24:27.349Z,10.30
2023-02-26T09:26:58.949Z,6.10
2023-02-26T09:29:30.206Z,8.80
2023-02-26T09:32:01.870Z,9.52
2023-02-26T09:37:04.988Z,4.80
2023-02-26T09:39:36.869Z,5.68
2023-02-26T09:42:37.354Z,7.22
2023-02-26T09:45:22.739Z,7.68
2023-02-26T09:47:56.174Z,8.15
2023-02-26T09:50:49.041Z,10.98
2023-02-26T09:53:40.037Z,11.02
2023-02-26T09:56:18.451Z,7.05
2023-02-26T09:58:50.260Z,6.35
2023-02-26T10:04:32.816Z,5.93
2023-02-26T10:07:23.509Z,6.65
2023-02-26T10:10:33.871Z,6.47
2023-02-26T10:13:05.858Z,7.00
2023-02-26T10:15:45.238Z,6.00
2023-02-26T10:18:23.814Z,4.60
2023-02-26T10:21:03.880Z,6.63
2023-02-26T10:23:46.606Z,6.55
2023-02-26T10:26:21.114Z,7.22
2023-02-26T10:29:10.408Z,6.07
2023-02-26T10:32:02.736Z,5.78
2023-02-26T10:34:41.823Z,6.57
2023-02-26T10:37:19.022Z,8.15
2023-02-26T10:40:26.931Z,7.22
2023-02-26T10:43:22.757Z,5.43
2023-02-26T10:45:59.814Z,5.38
2023-02-26T10:48:55.424Z,6.25
2023-02-26T10:51:28.937Z,7.90
2023-02-26T10:54:06.857Z,7.38
2023-02-26T10:56:38.235Z,6.78
2023-02-26T10:59:09.505Z,6.25
2023-02-26T11:01:40.910Z,5.32
2023-02-26T11:04:19.588Z,6.07
2023-02-26T11:07:01.505Z,4.78
2023-02-26T11:14:50.592Z,4.07
2023-02-26T11:17:30.971Z,4.53
2023-02-26T11:20:10.630Z,6.55
2023-02-26T11:22:42.377Z,5.25
2023-02-26T11:25:19.484Z,4.50
2023-02-26T11:27:53.484Z,4.28
2023-02-26T11:30:28.712Z,4.68
2023-02-26T11:33:01.305Z,4.43
2023-02-26T11:35:32.463Z,4.82
2023-02-26T11:38:05.466Z,4.47
2023-02-26T11:40:44.282Z,5.00
2023-02-26T11:43:19.608Z,4.38
2023-02-26T11:45:58.087Z,5.70
2023-02-26T11:48:43.203Z,4.60
2023-02-26T11:51:18.255Z,4.45
2023-02-26T11:54:02.872Z,3.20
2023-02-26T11:56:35.795Z,3.17
2023-02-26T11:59:26.436Z,3.53
2023-02-26T12:01:57.568Z,4.53
2023-02-26T12:07:00.009Z,5.53
2023-02-26T12:12:21.029Z,4.75
2023-02-26T12:15:00.311Z,4.75
2023-02-26T12:17:33.875Z,6.00
2023-02-26T12:20:32.211Z,4.70
2023-02-26T12:23:27.964Z,6.43
2023-02-26T12:26:02.126Z,5.03
2023-02-26T12:28:39.950Z,5.28
2023-02-26T12:31:31.521Z,5.18
2023-02-26T12:34:13.793Z,6.70
2023-02-26T12:37:03.678Z,4.47
2023-02-26T12:40:01.919Z,4.28
2023-02-26T12:42:53.004Z,6.63
2023-02-26T12:45:57.368Z,4.13
2023-02-26T12:48:50.527Z,4.97
2023-02-26T12:51:31.622Z,6.35
2023-02-26T12:54:27.619Z,4.40
2023-02-26T12:57:20.179Z,6.75
2023-02-26T13:00:17.680Z,6.00
2023-02-26T13:03:19.429Z,5.03
2023-02-26T13:06:00.470Z,4.90
2023-02-26T13:08:42.523Z,5.68
2023-02-26T13:11:20.415Z,5.00
2023-02-26T13:14:01.567Z,5.47
2023-02-26T13:16:52.365Z,5.88
2023-02-26T13:20:00.199Z,6.30
2023-02-26T13:22:39.545Z,7.07
2023-02-26T13:25:41.400Z,4.75
2023-02-26T13:28:24.824Z,5.60
2023-02-26T13:30:58.006Z,5.25
2023-02-26T13:33:34.264Z,5.30
2023-02-26T13:36:08.493Z,5.72
2023-02-26T13:38:58.042Z,5.55
2023-02-26T13:41:49.747Z,4.60
